createdAt,value
2024-01-10T00:01:21.870Z,5.57
2024-01-10T00:03:49.185Z,4.88
2024-01-10T00:06:16.443Z,5.93
2024-01-10T00:08:43.709Z,6.18
2024-01-10T00:11:11.074Z,5.10
2024-01-10T00:13:38.769Z,5.82
2024-01-10T00:16:06.517Z,5.38
2024-01-10T00:18:34.314Z,6.07
2024-01-10T00:21:01.747Z,5.88
2024-01-10T00:23:29.048Z,6.43
2024-01-10T00:25:56.349Z,5.90
2024-01-10T00:28:23.648Z,5.75
2024-01-10T00:30:51.283Z,6.40
2024-01-10T00:33:18.998Z,6.25
2024-01-10T00:35:46.259Z,6.07
2024-01-10T00:38:14.821Z,5.30
2024-01-10T00:40:42.399Z,6.43
2024-01-10T00:43:09.827Z,5.40
2024-01-10T00:45:37.036Z,5.63
2024-01-10T00:48:04.720Z,5.50
2024-01-10T00:50:32.064Z,5.68
2024-01-10T00:52:59.335Z,4.93
2024-01-10T00:55:26.635Z,5.20
2024-01-10T00:57:54.133Z,5.82
2024-01-10T01:00:21.588Z,6.25
2024-01-10T01:02:48.843Z,5.43
2024-01-10T01:05:16.205Z,5.13
2024-01-10T01:07:44.218Z,6.18
2024-01-10T01:10:11.627Z,5.85
2024-01-10T01:12:40.347Z,5.50
2024-01-10T01:15:08.718Z,5.72
2024-01-10T01:17:35.952Z,5.18
2024-01-10T01:20:05.812Z,4.78
2024-01-10T01:22:33.345Z,4.93
2024-01-10T01:25:00.585Z,4.30
2024-01-10T01:27:27.788Z,4.68
2024-01-10T01:29:55.044Z,6.28
2024-01-10T01:32:22.354Z,5.22
2024-01-10T01:34:49.719Z,5.28
2024-01-10T01:37:16.982Z,6.07
2024-01-10T01:39:44.207Z,5.30
2024-01-10T01:42:11.619Z,5.47
2024-01-10T01:44:39.198Z,5.15
2024-01-10T01:47:07.444Z,5.75
2024-01-10T01:49:35.096Z,5.28
2024-01-10T01:52:02.917Z,5.15
2024-01-10T01:54:33.835Z,5.47
2024-01-10T01:59:28.457Z,4.63
2024-01-10T02:01:57.422Z,5.28
2024-01-10T02:04:25.112Z,5.47
2024-01-10T02:06:52.816Z,5.35
2024-01-10T02:09:20.153Z,4.90
2024-01-10T02:11:47.371Z,5.22
2024-01-10T02:14:14.826Z,6.10
2024-01-10T02:16:42.175Z,5.28
2024-01-10T02:19:20.349Z,6.05
2024-01-10T02:21:47.941Z,5.68
2024-01-10T02:24:15.327Z,5.07
2024-01-10T02:26:42.995Z,5.40
2024-01-10T02:29:10.721Z,5.18
2024-01-10T02:31:38.119Z,4.95
2024-01-10T02:34:05.571Z,6.50
2024-01-10T02:36:33.063Z,4.60
2024-01-10T02:39:00.346Z,6.28
2024-01-10T02:41:28.552Z,5.57
2024-01-10T02:43:59.770Z,5.13
2024-01-10T02:46:30.236Z,5.00
2024-01-10T02:48:57.582Z,5.15
2024-01-10T02:51:27.976Z,5.20
2024-01-10T02:53:55.239Z,5.53
2024-01-10T02:56:22.570Z,5.70
2024-01-10T02:58:49.844Z,5.65
2024-01-10T03:01:17.151Z,5.25
2024-01-10T03:03:44.546Z,4.85
2024-01-10T03:06:11.953Z,5.30
2024-01-10T03:08:39.248Z,5.35
2024-01-10T03:11:06.554Z,4.90
2024-01-10T03:13:33.812Z,4.75
2024-01-10T03:16:01.111Z,4.28
2024-01-10T03:18:28.383Z,4.75
2024-01-10T03:20:56.881Z,4.80
2024-01-10T03:23:24.178Z,4.65
2024-01-10T03:25:51.544Z,4.72
2024-01-10T03:28:18.923Z,5.55
2024-01-10T03:30:46.449Z,4.70
2024-01-10T03:33:13.804Z,5.63
2024-01-10T03:35:41.070Z,4.63
2024-01-10T03:38:08.841Z,6.43
2024-01-10T03:40:36.267Z,6.93
2024-01-10T03:43:03.748Z,9.80
2024-01-10T03:45:30.985Z,8.68
2024-01-10T03:47:58.268Z,8.23
2024-01-10T03:50:25.596Z,8.30
2024-01-10T03:52:53.269Z,6.93
2024-01-10T03:55:20.624Z,8.80
2024-01-10T03:57:47.952Z,8.40
2024-01-10T04:00:15.308Z,7.75
2024-01-10T04:02:42.750Z,8.48
2024-01-10T04:05:14.655Z,8.05
2024-01-10T04:07:43.561Z,8.73
2024-01-10T04:10:12.031Z,9.40
2024-01-10T04:12:39.233Z,10.68
2024-01-10T04:15:07.251Z,8.43
2024-01-10T04:17:34.668Z,10.15
2024-01-10T04:20:02.410Z,10.75
2024-01-10T04:22:29.866Z,7.78
2024-01-10T04:24:59.090Z,9.50
2024-01-10T04:27:26.841Z,8.30
2024-01-10T04:29:54.641Z,8.02
2024-01-10T04:32:22.012Z,8.95
2024-01-10T04:34:49.321Z,9.20
2024-01-10T04:37:16.851Z,9.88
2024-01-10T04:39:44.160Z,9.60
2024-01-10T04:42:14.404Z,9.73
2024-01-10T04:44:41.680Z,9.43
2024-01-10T04:47:09.077Z,9.90
2024-01-10T04:49:36.629Z,9.25
2024-01-10T04:52:04.085Z,9.15
2024-01-10T04:54:31.369Z,9.07
2024-01-10T04:56:58.608Z,9.55
2024-01-10T04:59:25.867Z,9.27
2024-01-10T05:01:53.383Z,7.63
2024-01-10T05:04:20.623Z,9.45
2024-01-10T05:06:47.895Z,8.23
2024-01-10T05:09:15.176Z,9.40
2024-01-10T05:11:44.237Z,9.45
2024-01-10T05:14:12.375Z,9.02
2024-01-10T05:16:39.842Z,8.80
2024-01-10T05:19:07.241Z,8.63
2024-01-10T05:21:34.976Z,7.38
2024-01-10T05:24:02.240Z,8.27
2024-01-10T05:26:29.546Z,8.85
2024-01-10T05:28:56.813Z,7.88
2024-01-10T05:31:24.054Z,10.07
2024-01-10T05:33:51.405Z,8.85
2024-01-10T05:36:18.692Z,7.97
2024-01-10T05:38:45.921Z,9.70
2024-01-10T05:41:13.319Z,8.80
2024-01-10T05:43:40.895Z,9.00
2024-01-10T05:46:08.135Z,8.50
2024-01-10T05:48:35.447Z,9.32
2024-01-10T05:51:02.798Z,7.43
2024-01-10T05:53:30.319Z,8.73
2024-01-10T05:55:57.772Z,9.63
2024-01-10T05:58:25.038Z,9.35
2024-01-10T06:00:52.957Z,9.13
2024-01-10T06:03:20.368Z,9.75
2024-01-10T06:05:47.615Z,8.95
2024-01-10T06:08:15.433Z,8.70
2024-01-10T06:10:42.896Z,7.32
2024-01-10T06:13:10.220Z,8.68
2024-01-10T06:15:37.484Z,11.10
2024-01-10T06:18:04.934Z,9.50
2024-01-10T06:20:33.164Z,9.98
2024-01-10T06:23:00.610Z,10.02
2024-01-10T06:25:28.661Z,8.35
2024-01-10T06:27:56.143Z,9.55
2024-01-10T06:30:23.419Z,10.05
2024-01-10T06:32:50.693Z,9.25
2024-01-10T06:35:18.068Z,10.85
2024-01-10T06:37:45.630Z,11.55
2024-01-10T06:40:13.190Z,10.07
2024-01-10T06:42:40.548Z,10.65
2024-01-10T06:45:09.403Z,10.95
2024-01-10T06:47:36.936Z,9.13
2024-01-10T06:50:06.618Z,9.40
2024-01-10T06:52:33.968Z,9.40
2024-01-10T06:55:01.224Z,8.32
2024-01-10T06:57:28.555Z,10.65
2024-01-10T06:59:55.811Z,9.68
2024-01-10T07:02:24.329Z,9.50
2024-01-10T07:04:51.841Z,10.63
2024-01-10T07:07:19.095Z,9.13
2024-01-10T07:09:46.618Z,9.70
2024-01-10T07:12:13.908Z,10.80
2024-01-10T07:14:41.203Z,10.70
2024-01-10T07:17:08.653Z,10.82
2024-01-10T07:19:36.012Z,9.10
2024-01-10T07:22:03.344Z,9.45
2024-01-10T07:24:30.639Z,11.75
2024-01-10T07:26:58.243Z,9.82
2024-01-10T07:29:25.545Z,10.30
2024-01-10T07:31:53.999Z,12.23
2024-01-10T07:34:22.489Z,10.55
2024-01-10T07:36:49.789Z,12.80
2024-01-10T07:39:19.161Z,11.35
2024-01-10T07:41:46.756Z,10.70
2024-01-10T07:44:14.173Z,12.27
2024-01-10T07:46:41.597Z,11.18
2024-01-10T07:49:08.983Z,11.90
2024-01-10T07:51:37.261Z,12.15
2024-01-10T07:54:04.660Z,11.15
2024-01-10T07:56:31.904Z,10.45
2024-01-10T07:58:59.194Z,11.68
2024-01-10T08:01:27.106Z,10.77
2024-01-10T08:03:54.365Z,12.98
2024-01-10T08:06:27.287Z,11.75
2024-01-10T08:08:59.901Z,12.00
2024-01-10T08:11:27.448Z,11.65
2024-01-10T08:13:54.871Z,11.98
2024-01-10T08:16:22.466Z,11.48
2024-01-10T08:18:49.951Z,11.25
2024-01-10T08:21:17.303Z,12.35
2024-01-10T08:23:44.560Z,12.20
2024-01-10T08:26:12.708Z,13.85
2024-01-10T08:28:40.209Z,12.75
2024-01-10T08:31:08.484Z,12.48
2024-01-10T08:33:35.893Z,11.65
2024-01-10T08:36:03.744Z,13.43
2024-01-10T08:38:31.157Z,12.10
2024-01-10T08:40:58.682Z,15.20
2024-01-10T08:43:25.958Z,15.18
2024-01-10T08:45:53.381Z,14.57
2024-01-10T08:48:20.754Z,13.02
2024-01-10T08:50:48.143Z,12.70
2024-01-10T08:53:15.390Z,14.25
2024-01-10T08:55:42.972Z,13.13
2024-01-10T08:58:10.459Z,14.38
2024-01-10T09:00:37.906Z,14.10
2024-01-10T09:03:05.898Z,12.00
2024-01-10T09:05:33.818Z,13.00
2024-01-10T09:08:01.401Z,14.15
2024-01-10T09:10:29.319Z,14.30
2024-01-10T09:12:59.326Z,14.27
2024-01-10T09:15:26.720Z,13.00
2024-01-10T09:17:54.102Z,12.60
2024-01-10T09:20:21.703Z,12.70
2024-01-10T09:22:50.211Z,13.63
2024-01-10T09:25:18.432Z,13.77
2024-01-10T09:27:46.313Z,13.13
2024-01-10T09:30:14.398Z,12.90
2024-01-10T09:32:41.858Z,11.27
2024-01-10T09:35:10.026Z,13.27
2024-01-10T09:37:37.563Z,14.05
2024-01-10T09:40:07.197Z,12.65
2024-01-10T09:42:37.989Z,12.18
2024-01-10T09:45:06.292Z,10.38
2024-01-10T09:47:36.658Z,10.55
2024-01-10T09:50:05.251Z,10.30
2024-01-10T09:52:40.286Z,7.57
2024-01-10T09:55:09.483Z,5.45
2024-01-10T09:57:37.693Z,5.55
2024-01-10T10:00:11.702Z,5.30
2024-01-10T10:02:40.874Z,5.70
2024-01-10T10:05:27.492Z,4.88
2024-01-10T10:07:55.167Z,5.45
2024-01-10T10:10:22.787Z,5.28
2024-01-10T10:12:54.984Z,5.30
2024-01-10T10:15:24.070Z,4.72
2024-01-10T10:17:54.643Z,5.57
2024-01-10T10:20:26.970Z,5.00
2024-01-10T10:23:05.531Z,6.05
2024-01-10T10:25:35.143Z,5.97
2024-01-10T10:28:04.162Z,5.60
2024-01-10T10:30:35.569Z,5.40
2024-01-10T10:33:04.324Z,6.63
2024-01-10T10:35:38.961Z,6.13
2024-01-10T10:38:12.304Z,5.35
2024-01-10T10:40:40.223Z,5.50
2024-01-10T10:43:15.240Z,6.05
2024-01-10T10:45:49.375Z,5.13
2024-01-10T10:48:20.636Z,6.43
2024-01-10T10:51:11.718Z,5.78
2024-01-10T10:53:41.600Z,5.90
2024-01-10T10:56:09.410Z,7.47
2024-01-10T10:58:40.548Z,6.65
2024-01-10T11:01:10.163Z,6.28
2024-01-10T11:03:39.218Z,5.80
2024-01-10T11:06:07.701Z,5.80
2024-01-10T11:08:50.581Z,6.05
2024-01-10T11:11:55.355Z,6.25
2024-01-10T11:14:31.463Z,5.93
2024-01-10T11:17:36.134Z,6.18
2024-01-10T11:20:34.709Z,5.32
2024-01-10T11:23:20.670Z,6.68
2024-01-10T11:25:48.020Z,5.68
2024-01-10T11:28:15.547Z,7.18
2024-01-10T11:31:01.094Z,6.63
2024-01-10T11:33:41.986Z,6.32
2024-01-10T11:36:13.601Z,6.18
2024-01-10T11:38:49.165Z,5.68
2024-01-10T11:41:24.189Z,6.75
2024-01-10T11:44:13.769Z,6.00
2024-01-10T11:46:42.635Z,6.95
2024-01-10T11:49:16.753Z,5.78
2024-01-10T11:51:47.958Z,4.57
2024-01-10T11:54:34.130Z,5.22
2024-01-10T11:57:02.523Z,5.15
2024-01-10T11:59:31.729Z,4.60
2024-01-10T12:01:59.902Z,4.80
2024-01-10T12:04:41.280Z,3.90
2024-01-10T12:07:14.592Z,3.72
2024-01-10T12:09:42.991Z,3.78
2024-01-10T12:12:12.409Z,3.90
2024-01-10T12:14:41.056Z,4.60
2024-01-10T12:17:09.430Z,4.25
2024-01-10T12:19:40.701Z,4.38
2024-01-10T12:24:46.305Z,4.50
2024-01-10T12:27:13.920Z,4.68
2024-01-10T12:29:41.317Z,4.75
2024-01-10T12:32:10.308Z,4.85
2024-01-10T12:34:41.371Z,4.50
2024-01-10T12:39:39.118Z,4.75
2024-01-10T12:42:06.503Z,4.75
2024-01-10T12:44:35.129Z,5.07
2024-01-10T12:47:03.752Z,5.07
2024-01-10T12:49:31.164Z,4.47
2024-01-10T12:51:58.893Z,4.15
2024-01-10T12:54:26.310Z,4.95
2024-01-10T12:56:53.646Z,5.28
2024-01-10T12:59:21.021Z,4.25
2024-01-10T13:01:48.428Z,4.93
2024-01-10T13:04:16.016Z,5.18
2024-01-10T13:06:43.297Z,4.85
2024-01-10T13:09:10.858Z,4.30
2024-01-10T13:11:38.470Z,9.07
2024-01-10T13:14:05.886Z,5.82
2024-01-10T13:16:42.589Z,4.47
2024-01-10T13:19:16.668Z,4.45
2024-01-10T13:21:43.986Z,4.00
2024-01-10T13:24:11.233Z,5.05
2024-01-10T13:26:38.632Z,4.97
2024-01-10T13:29:06.017Z,4.22
2024-01-10T13:31:33.257Z,4.40
2024-01-10T13:34:00.612Z,4.60
2024-01-10T13:36:27.889Z,4.90
2024-01-10T13:38:55.185Z,4.75
2024-01-10T13:41:22.419Z,5.13
2024-01-10T13:43:49.701Z,4.25
2024-01-10T13:46:18.028Z,5.07
2024-01-10T13:48:45.355Z,4.82
2024-01-10T13:51:12.700Z,4.75
2024-01-10T13:53:39.978Z,4.70
2024-01-10T13:56:07.724Z,5.32
2024-01-10T13:58:35.154Z,5.80
2024-01-10T14:01:02.629Z,5.65
2024-01-10T14:03:33.496Z,5.07
2024-01-10T14:06:01.892Z,4.88
2024-01-10T14:08:30.776Z,4.40
2024-01-10T14:10:58.124Z,5.57
2024-01-10T14:13:25.392Z,4.97
2024-01-10T14:15:52.586Z,5.72
2024-01-10T14:18:19.928Z,5.35
2024-01-10T14:20:47.280Z,5.82
2024-01-10T14:23:15.200Z,5.95
2024-01-10T14:25:42.459Z,5.40
2024-01-10T14:28:09.698Z,4.65
2024-01-10T14:30:37.009Z,5.55
2024-01-10T14:33:05.266Z,4.93
2024-01-10T14:35:32.942Z,5.72
2024-01-10T14:38:00.467Z,5.97
2024-01-10T14:40:27.741Z,5.13
2024-01-10T14:42:54.944Z,5.85
2024-01-10T14:45:22.182Z,5.50
2024-01-10T14:47:50.788Z,6.18
2024-01-10T14:52:45.462Z,4.78
2024-01-10T14:55:12.893Z,5.00
2024-01-10T14:57:40.137Z,5.32
2024-01-10T15:00:08.008Z,5.07
2024-01-10T15:02:37.233Z,5.05
2024-01-10T15:05:06.397Z,5.03
2024-01-10T15:07:33.698Z,5.43
2024-01-10T15:10:03.958Z,5.25
2024-01-10T15:12:32.066Z,4.90
2024-01-10T15:15:02.666Z,5.75
2024-01-10T15:17:30.225Z,5.38
2024-01-10T15:19:57.581Z,4.85
2024-01-10T15:22:24.876Z,5.88
2024-01-10T15:24:52.058Z,5.70
2024-01-10T15:27:19.756Z,5.15
2024-01-10T15:29:53.165Z,5.93
2024-01-10T15:32:24.228Z,6.05
2024-01-10T15:34:51.763Z,5.95
2024-01-10T15:37:19.028Z,4.80
2024-01-10T15:39:47.367Z,5.95
2024-01-10T15:42:14.814Z,6.25
2024-01-10T15:44:43.650Z,5.57
2024-01-10T15:47:11.204Z,5.78
2024-01-10T15:49:38.722Z,5.80
2024-01-10T15:52:06.106Z,5.50
2024-01-10T15:54:38.504Z,6.05
2024-01-10T15:57:06.062Z,5.70
2024-01-10T15:59:33.545Z,5.68
2024-01-10T16:02:00.777Z,5.00
2024-01-10T16:04:29.547Z,4.72
2024-01-10T16:06:56.899Z,4.72
2024-01-10T16:09:24.854Z,5.38
2024-01-10T16:11:52.193Z,5.03
2024-01-10T16:14:19.485Z,5.35
2024-01-10T16:16:46.805Z,5.35
2024-01-10T16:19:14.494Z,5.45
2024-01-10T16:21:41.899Z,4.88
2024-01-10T16:24:09.343Z,5.57
2024-01-10T16:26:37.434Z,5.32
2024-01-10T16:29:05.024Z,5.75
2024-01-10T16:31:32.941Z,6.15
2024-01-10T16:34:00.179Z,5.95
2024-01-10T16:36:27.487Z,4.82
2024-01-10T16:38:56.033Z,6.43
2024-01-10T16:41:23.381Z,4.93
2024-01-10T16:43:50.730Z,6.50
2024-01-10T16:46:18.000Z,6.72
2024-01-10T16:48:45.444Z,6.10
2024-01-10T16:51:12.785Z,5.95
2024-01-10T16:53:40.037Z,4.97
2024-01-10T16:56:08.547Z,6.53
2024-01-10T16:58:35.863Z,6.82
2024-01-10T17:01:03.245Z,8.38
2024-01-10T17:03:32.249Z,9.48
2024-01-10T17:06:00.348Z,9.02
2024-01-10T17:08:27.737Z,8.73
2024-01-10T17:10:55.070Z,11.27
2024-01-10T17:13:24.343Z,11.85
2024-01-10T17:15:51.758Z,11.55
2024-01-10T17:18:19.327Z,10.98
2024-01-10T17:20:46.725Z,9.40
2024-01-10T17:23:14.617Z,11.10
2024-01-10T17:25:41.912Z,8.48
2024-01-10T17:28:09.250Z,9.45
2024-01-10T17:30:36.552Z,11.50
2024-01-10T17:33:09.511Z,9.60
2024-01-10T17:35:37.627Z,8.02
2024-01-10T17:38:06.775Z,9.20
2024-01-10T17:40:34.214Z,10.25
2024-01-10T17:43:01.479Z,10.32
2024-01-10T17:45:28.722Z,8.98
2024-01-10T17:47:56.242Z,9.75
2024-01-10T17:50:25.318Z,9.88
2024-01-10T17:52:52.877Z,9.45
2024-01-10T17:55:20.199Z,10.00
2024-01-10T17:57:47.487Z,9.40
2024-01-10T18:00:15.472Z,8.88
2024-01-10T18:02:42.876Z,8.73
2024-01-10T18:05:10.558Z,8.55
2024-01-10T18:07:37.873Z,10.10
2024-01-10T18:10:05.664Z,9.50
2024-01-10T18:12:33.033Z,8.02
2024-01-10T18:15:01.141Z,8.25
2024-01-10T18:17:28.409Z,8.57
2024-01-10T18:19:55.693Z,8.48
2024-01-10T18:22:22.967Z,9.05
2024-01-10T18:24:50.201Z,9.68
2024-01-10T18:27:17.627Z,8.68
2024-01-10T18:29:45.008Z,8.85
2024-01-10T18:32:12.665Z,9.45
2024-01-10T18:34:39.957Z,8.35
2024-01-10T18:37:07.309Z,9.35
2024-01-10T18:39:35.003Z,9.13
2024-01-10T18:42:02.455Z,9.20
2024-01-10T18:44:29.912Z,9.65
2024-01-10T18:46:57.307Z,10.55
2024-01-10T18:49:24.583Z,10.52
2024-01-10T18:51:52.090Z,9.95
2024-01-10T18:54:19.392Z,9.55
2024-01-10T18:56:46.910Z,10.70
2024-01-10T18:59:14.229Z,11.68
2024-01-10T19:01:44.183Z,11.82
2024-01-10T19:04:11.697Z,10.87
2024-01-10T19:06:39.258Z,9.73
2024-01-10T19:09:07.136Z,9.10
2024-01-10T19:11:34.654Z,11.48
2024-01-10T19:14:02.046Z,12.63
2024-01-10T19:16:29.390Z,11.40
2024-01-10T19:18:56.677Z,12.43
2024-01-10T19:21:24.031Z,12.80
2024-01-10T19:23:51.321Z,13.35
2024-01-10T19:26:25.823Z,11.90
2024-01-10T19:28:53.438Z,10.93
2024-01-10T19:31:21.069Z,12.38
2024-01-10T19:33:49.766Z,12.23
2024-01-10T19:36:17.942Z,16.77
2024-01-10T19:38:45.982Z,16.73
2024-01-10T19:41:24.081Z,14.55
2024-01-10T19:43:52.256Z,13.25
2024-01-10T19:46:20.457Z,15.73
2024-01-10T19:48:48.626Z,14.38
2024-01-10T19:51:17.028Z,14.70
2024-01-10T19:53:49.330Z,12.38
2024-01-10T19:56:17.500Z,14.45
2024-01-10T19:58:45.509Z,13.02
2024-01-10T20:01:13.293Z,12.32
2024-01-10T20:03:40.865Z,12.65
2024-01-10T20:06:09.079Z,13.43
2024-01-10T20:08:36.565Z,13.68
2024-01-10T20:11:04.003Z,14.02
2024-01-10T20:13:31.338Z,11.20
2024-01-10T20:15:58.622Z,14.18
2024-01-10T20:18:26.122Z,13.10
2024-01-10T20:20:53.500Z,12.98
2024-01-10T20:23:20.933Z,14.00
2024-01-10T20:25:49.040Z,12.95
2024-01-10T20:28:19.084Z,14.43
2024-01-10T20:30:47.125Z,12.63
2024-01-10T20:33:14.630Z,14.32
2024-01-10T20:35:42.396Z,12.32
2024-01-10T20:38:09.850Z,13.18
2024-01-10T20:40:37.206Z,13.85
2024-01-10T20:43:04.785Z,13.68
2024-01-10T20:45:32.056Z,13.00
2024-01-10T20:47:59.385Z,14.45
2024-01-10T20:50:26.798Z,11.98
2024-01-10T20:52:54.119Z,13.60
2024-01-10T20:55:21.402Z,13.02
2024-01-10T20:57:48.782Z,13.68
2024-01-10T21:00:16.405Z,12.73
2024-01-10T21:02:43.757Z,13.68
2024-01-10T21:05:11.132Z,13.63
2024-01-10T21:07:38.490Z,12.02
2024-01-10T21:10:06.046Z,13.13
2024-01-10T21:12:33.678Z,14.30
2024-01-10T21:15:00.969Z,13.60
2024-01-10T21:17:28.583Z,14.88
2024-01-10T21:19:58.746Z,14.07
2024-01-10T21:22:28.223Z,15.23
2024-01-10T21:24:56.205Z,15.25
2024-01-10T21:27:26.475Z,13.43
2024-01-10T21:29:53.830Z,13.35
2024-01-10T21:32:21.201Z,14.40
2024-01-10T21:34:49.140Z,13.77
2024-01-10T21:37:16.554Z,14.25
2024-01-10T21:39:43.992Z,14.38
2024-01-10T21:42:11.257Z,14.50
2024-01-10T21:44:38.563Z,17.58
2024-01-10T21:47:07.520Z,16.30
2024-01-10T21:49:35.069Z,15.20
2024-01-10T21:52:02.486Z,16.40
2024-01-10T21:54:29.848Z,15.30
2024-01-10T21:56:57.219Z,15.88
2024-01-10T21:59:24.822Z,14.00
2024-01-10T22:01:52.193Z,14.88
2024-01-10T22:04:19.816Z,14.88
2024-01-10T22:06:47.756Z,15.05
2024-01-10T22:09:15.253Z,14.63
2024-01-10T22:11:43.362Z,14.93
2024-01-10T22:14:13.107Z,15.23
2024-01-10T22:16:40.655Z,16.55
2024-01-10T22:19:07.952Z,14.63
2024-01-10T22:21:35.309Z,16.63
2024-01-10T22:24:02.756Z,16.95
2024-01-10T22:26:30.078Z,15.02
2024-01-10T22:28:57.388Z,14.75
2024-01-10T22:31:24.681Z,15.30
2024-01-10T22:33:52.078Z,14.68
2024-01-10T22:36:19.408Z,14.52
2024-01-10T22:38:46.856Z,17.20
2024-01-10T22:41:15.158Z,15.55
2024-01-10T22:43:42.539Z,15.40
2024-01-10T22:46:09.852Z,16.20
2024-01-10T22:48:37.523Z,16.90
2024-01-10T22:51:05.021Z,14.20
2024-01-10T22:53:32.421Z,15.70
2024-01-10T22:56:00.478Z,14.93
2024-01-10T22:58:29.776Z,15.68
2024-01-10T23:01:00.258Z,14.05
2024-01-10T23:03:32.036Z,15.18
2024-01-10T23:05:59.811Z,14.68
2024-01-10T23:08:27.230Z,13.38
2024-01-10T23:10:54.517Z,15.00
2024-01-10T23:13:21.802Z,14.82
2024-01-10T23:15:49.093Z,14.88
2024-01-10T23:18:18.583Z,14.00
2024-01-10T23:20:45.989Z,13.65
2024-01-10T23:23:13.759Z,14.18
2024-01-10T23:25:41.481Z,14.15
2024-01-10T23:28:08.783Z,14.48
2024-01-10T23:30:36.216Z,14.15
2024-01-10T23:33:04.180Z,15.85
2024-01-10T23:35:40.440Z,15.13
2024-01-10T23:38:15.035Z,16.98
2024-01-10T23:40:42.373Z,15.88
2024-01-10T23:43:15.888Z,15.75
2024-01-10T23:45:52.167Z,15.70
2024-01-10T23:48:19.496Z,15.63
2024-01-10T23:50:46.962Z,16.20
2024-01-10T23:53:14.720Z,14.90
2024-01-10T23:55:42.444Z,15.57
2024-01-10T23:58:10.852Z,15.32
